sensor_id;sensor_type;location;lat;lon;timestamp;P1;durP1;ratioP1;P2;durP2;ratioP2
22687;SDS011;11511;51.514;7.080;2023-09-07T00:00:29;9.63;;;8.05;;
22687;SDS011;11511;51.514;7.080;2023-09-07T00:02:56;11.00;;;7.85;;
22687;SDS011;11511;51.514;7.080;2023-09-07T00:05:22;10.02;;;8.15;;
22687;SDS011;11511;51.514;7.080;2023-09-07T00:07:48;11.85;;;7.85;;
22687;SDS011;11511;51.514;7.080;2023-09-07T00:10:15;11.43;;;8.30;;
22687;SDS011;11511;51.514;7.080;2023-09-07T00:12:43;10.90;;;8.50;;
22687;SDS011;11511;51.514;7.080;2023-09-07T00:15:09;10.93;;;8.13;;
22687;SDS011;11511;51.514;7.080;2023-09-07T00:17:35;10.85;;;8.43;;
22687;SDS011;11511;51.514;7.080;2023-09-07T00:20:02;9.60;;;8.25;;
22687;SDS011;11511;51.514;7.080;2023-09-07T00:22:39;11.10;;;8.10;;
22687;SDS011;11511;51.514;7.080;2023-09-07T00:25:05;11.48;;;8.43;;
22687;SDS011;11511;51.514;7.080;2023-09-07T00:27:32;9.18;;;7.80;;
22687;SDS011;11511;51.514;7.080;2023-09-07T00:29:59;12.23;;;8.90;;
22687;SDS011;11511;51.514;7.080;2023-09-07T00:32:25;13.13;;;8.20;;
22687;SDS011;11511;51.514;7.080;2023-09-07T00:34:51;10.18;;;8.00;;
22687;SDS011;11511;51.514;7.080;2023-09-07T00:37:17;11.73;;;8.60;;
22687;SDS011;11511;51.514;7.080;2023-09-07T00:39:43;10.65;;;8.32;;
22687;SDS011;11511;51.514;7.080;2023-09-07T00:42:09;9.52;;;8.27;;
22687;SDS011;11511;51.514;7.080;2023-09-07T00:44:35;11.00;;;8.63;;
22687;SDS011;11511;51.514;7.080;2023-09-07T00:47:01;9.48;;;8.20;;
22687;SDS011;11511;51.514;7.080;2023-09-07T00:49:27;9.18;;;8.27;;
22687;SDS011;11511;51.514;7.080;2023-09-07T00:51:53;9.98;;;8.07;;
22687;SDS011;11511;51.514;7.080;2023-09-07T00:54:20;10.00;;;8.10;;
22687;SDS011;11511;51.514;7.080;2023-09-07T00:56:46;10.13;;;8.07;;
22687;SDS011;11511;51.514;7.080;2023-09-07T00:59:13;9.45;;;8.27;;
22687;SDS011;11511;51.514;7.080;2023-09-07T01:01:39;10.13;;;7.78;;
22687;SDS011;11511;51.514;7.080;2023-09-07T01:04:07;10.02;;;8.30;;
22687;SDS011;11511;51.514;7.080;2023-09-07T01:06:35;11.48;;;8.35;;
22687;SDS011;11511;51.514;7.080;2023-09-07T01:09:06;12.90;;;8.40;;
22687;SDS011;11511;51.514;7.080;2023-09-07T01:11:39;11.07;;;8.52;;
22687;SDS011;11511;51.514;7.080;2023-09-07T01:14:05;15.52;;;8.60;;
22687;SDS011;11511;51.514;7.080;2023-09-07T01:16:31;13.38;;;8.55;;
22687;SDS011;11511;51.514;7.080;2023-09-07T01:19:01;11.52;;;8.35;;
22687;SDS011;11511;51.514;7.080;2023-09-07T01:21:27;12.30;;;9.18;;
22687;SDS011;11511;51.514;7.080;2023-09-07T01:23:59;13.18;;;9.02;;
22687;SDS011;11511;51.514;7.080;2023-09-07T01:26:25;12.05;;;8.85;;
22687;SDS011;11511;51.514;7.080;2023-09-07T01:28:52;11.77;;;8.95;;
22687;SDS011;11511;51.514;7.080;2023-09-07T01:31:18;11.82;;;9.15;;
22687;SDS011;11511;51.514;7.080;2023-09-07T01:33:44;10.35;;;8.27;;
22687;SDS011;11511;51.514;7.080;2023-09-07T01:36:10;11.55;;;8.45;;
22687;SDS011;11511;51.514;7.080;2023-09-07T01:38:36;11.73;;;8.18;;
22687;SDS011;11511;51.514;7.080;2023-09-07T01:41:02;12.05;;;8.75;;
22687;SDS011;11511;51.514;7.080;2023-09-07T01:43:27;12.00;;;8.27;;
22687;SDS011;11511;51.514;7.080;2023-09-07T01:45:53;13.15;;;8.68;;
22687;SDS011;11511;51.514;7.080;2023-09-07T01:48:19;10.75;;;8.20;;
22687;SDS011;11511;51.514;7.080;2023-09-07T01:50:45;11.57;;;8.77;;
22687;SDS011;11511;51.514;7.080;2023-09-07T01:53:10;11.43;;;8.43;;
22687;SDS011;11511;51.514;7.080;2023-09-07T01:55:37;9.77;;;8.30;;
22687;SDS011;11511;51.514;7.080;2023-09-07T01:58:06;9.80;;;7.90;;
22687;SDS011;11511;51.514;7.080;2023-09-07T02:00:36;11.68;;;7.80;;
22687;SDS011;11511;51.514;7.080;2023-09-07T02:03:06;11.52;;;7.90;;
22687;SDS011;11511;51.514;7.080;2023-09-07T02:05:32;8.23;;;7.13;;
22687;SDS011;11511;51.514;7.080;2023-09-07T02:07:59;9.30;;;7.40;;
22687;SDS011;11511;51.514;7.080;2023-09-07T02:10:25;9.52;;;7.93;;
22687;SDS011;11511;51.514;7.080;2023-09-07T02:12:50;8.65;;;6.88;;
22687;SDS011;11511;51.514;7.080;2023-09-07T02:15:17;9.52;;;7.88;;
22687;SDS011;11511;51.514;7.080;2023-09-07T02:17:43;9.70;;;7.90;;
22687;SDS011;11511;51.514;7.080;2023-09-07T02:20:12;11.02;;;7.85;;
22687;SDS011;11511;51.514;7.080;2023-09-07T02:22:38;9.82;;;7.93;;
22687;SDS011;11511;51.514;7.080;2023-09-07T02:25:04;9.00;;;7.63;;
22687;SDS011;11511;51.514;7.080;2023-09-07T02:27:31;8.05;;;7.22;;
22687;SDS011;11511;51.514;7.080;2023-09-07T02:30:00;9.18;;;7.20;;
22687;SDS011;11511;51.514;7.080;2023-09-07T02:32:27;9.27;;;7.72;;
22687;SDS011;11511;51.514;7.080;2023-09-07T02:34:53;10.60;;;7.50;;
22687;SDS011;11511;51.514;7.080;2023-09-07T02:37:19;10.85;;;7.72;;
22687;SDS011;11511;51.514;7.080;2023-09-07T02:39:46;9.88;;;7.72;;
22687;SDS011;11511;51.514;7.080;2023-09-07T02:42:12;8.52;;;7.43;;
22687;SDS011;11511;51.514;7.080;2023-09-07T02:44:39;10.52;;;7.68;;
22687;SDS011;11511;51.514;7.080;2023-09-07T02:47:05;9.35;;;7.68;;
22687;SDS011;11511;51.514;7.080;2023-09-07T02:49:32;8.27;;;7.18;;
22687;SDS011;11511;51.514;7.080;2023-09-07T02:51:59;8.00;;;7.00;;
22687;SDS011;11511;51.514;7.080;2023-09-07T02:54:27;7.95;;;6.95;;
22687;SDS011;11511;51.514;7.080;2023-09-07T02:56:54;11.68;;;7.68;;
22687;SDS011;11511;51.514;7.080;2023-09-07T02:59:21;11.52;;;7.30;;
22687;SDS011;11511;51.514;7.080;2023-09-07T03:01:47;9.90;;;7.60;;
22687;SDS011;11511;51.514;7.080;2023-09-07T03:04:14;9.27;;;7.00;;
22687;SDS011;11511;51.514;7.080;2023-09-07T03:06:40;9.23;;;6.97;;
22687;SDS011;11511;51.514;7.080;2023-09-07T03:09:05;9.93;;;7.57;;
22687;SDS011;11511;51.514;7.080;2023-09-07T03:11:34;9.25;;;7.85;;
22687;SDS011;11511;51.514;7.080;2023-09-07T03:14:01;10.32;;;7.30;;
22687;SDS011;11511;51.514;7.080;2023-09-07T03:16:27;11.73;;;7.90;;
22687;SDS011;11511;51.514;7.080;2023-09-07T03:18:53;8.18;;;7.30;;
22687;SDS011;11511;51.514;7.080;2023-09-07T03:21:20;8.90;;;7.53;;
22687;SDS011;11511;51.514;7.080;2023-09-07T03:23:52;8.63;;;7.30;;
22687;SDS011;11511;51.514;7.080;2023-09-07T03:26:18;10.32;;;7.70;;
22687;SDS011;11511;51.514;7.080;2023-09-07T03:28:44;9.70;;;7.25;;
22687;SDS011;11511;51.514;7.080;2023-09-07T03:31:09;10.50;;;7.07;;
22687;SDS011;11511;51.514;7.080;2023-09-07T03:33:35;11.32;;;7.13;;
22687;SDS011;11511;51.514;7.080;2023-09-07T03:36:01;8.48;;;7.13;;
22687;SDS011;11511;51.514;7.080;2023-09-07T03:38:28;8.07;;;7.28;;
22687;SDS011;11511;51.514;7.080;2023-09-07T03:40:54;10.02;;;7.45;;
22687;SDS011;11511;51.514;7.080;2023-09-07T03:43:22;16.45;;;7.18;;
22687;SDS011;11511;51.514;7.080;2023-09-07T03:45:48;10.23;;;7.25;;
22687;SDS011;11511;51.514;7.080;2023-09-07T03:48:14;10.90;;;7.30;;
22687;SDS011;11511;51.514;7.080;2023-09-07T03:50:40;10.07;;;7.47;;
22687;SDS011;11511;51.514;7.080;2023-09-07T03:53:06;9.90;;;7.70;;
22687;SDS011;11511;51.514;7.080;2023-09-07T03:55:39;13.85;;;8.35;;
22687;SDS011;11511;51.514;7.080;2023-09-07T03:58:07;10.70;;;8.43;;
22687;SDS011;11511;51.514;7.080;2023-09-07T04:00:34;8.60;;;7.63;;
22687;SDS011;11511;51.514;7.080;2023-09-07T04:03:03;9.38;;;7.45;;
22687;SDS011;11511;51.514;7.080;2023-09-07T04:05:29;11.85;;;7.72;;
22687;SDS011;11511;51.514;7.080;2023-09-07T04:07:56;9.95;;;7.72;;
22687;SDS011;11511;51.514;7.080;2023-09-07T04:10:22;9.73;;;7.85;;
22687;SDS011;11511;51.514;7.080;2023-09-07T04:12:49;9.13;;;8.05;;
22687;SDS011;11511;51.514;7.080;2023-09-07T04:15:15;8.35;;;7.45;;
22687;SDS011;11511;51.514;7.080;2023-09-07T04:17:41;9.77;;;8.18;;
22687;SDS011;11511;51.514;7.080;2023-09-07T04:20:07;11.88;;;8.70;;
22687;SDS011;11511;51.514;7.080;2023-09-07T04:22:34;11.48;;;8.75;;
22687;SDS011;11511;51.514;7.080;2023-09-07T04:25:00;10.43;;;8.75;;
22687;SDS011;11511;51.514;7.080;2023-09-07T04:27:27;12.05;;;8.65;;
22687;SDS011;11511;51.514;7.080;2023-09-07T04:29:53;13.55;;;8.90;;
22687;SDS011;11511;51.514;7.080;2023-09-07T04:32:20;13.18;;;8.98;;
22687;SDS011;11511;51.514;7.080;2023-09-07T04:34:46;11.73;;;8.27;;
22687;SDS011;11511;51.514;7.080;2023-09-07T04:37:12;12.73;;;9.00;;
22687;SDS011;11511;51.514;7.080;2023-09-07T04:39:38;9.35;;;8.15;;
22687;SDS011;11511;51.514;7.080;2023-09-07T04:42:05;14.27;;;9.98;;
22687;SDS011;11511;51.514;7.080;2023-09-07T04:44:32;12.57;;;8.77;;
22687;SDS011;11511;51.514;7.080;2023-09-07T04:46:59;11.40;;;8.68;;
22687;SDS011;11511;51.514;7.080;2023-09-07T04:49:26;12.70;;;9.20;;
22687;SDS011;11511;51.514;7.080;2023-09-07T04:51:53;10.63;;;9.05;;
22687;SDS011;11511;51.514;7.080;2023-09-07T04:54:19;11.52;;;8.02;;
22687;SDS011;11511;51.514;7.080;2023-09-07T04:56:45;11.60;;;8.55;;
22687;SDS011;11511;51.514;7.080;2023-09-07T04:59:12;10.95;;;8.55;;
22687;SDS011;11511;51.514;7.080;2023-09-07T05:01:37;11.48;;;8.30;;
22687;SDS011;11511;51.514;7.080;2023-09-07T05:04:03;10.85;;;8.05;;
22687;SDS011;11511;51.514;7.080;2023-09-07T05:06:29;13.23;;;8.57;;
22687;SDS011;11511;51.514;7.080;2023-09-07T05:08:55;11.55;;;8.25;;
22687;SDS011;11511;51.514;7.080;2023-09-07T05:11:24;11.10;;;8.50;;
22687;SDS011;11511;51.514;7.080;2023-09-07T05:13:52;15.00;;;8.48;;
22687;SDS011;11511;51.514;7.080;2023-09-07T05:16:17;11.82;;;8.20;;
22687;SDS011;11511;51.514;7.080;2023-09-07T05:18:46;10.85;;;8.20;;
22687;SDS011;11511;51.514;7.080;2023-09-07T05:21:13;11.35;;;8.38;;
22687;SDS011;11511;51.514;7.080;2023-09-07T05:23:39;11.73;;;8.75;;
22687;SDS011;11511;51.514;7.080;2023-09-07T05:26:05;12.77;;;8.43;;
22687;SDS011;11511;51.514;7.080;2023-09-07T05:28:30;9.75;;;8.02;;
22687;SDS011;11511;51.514;7.080;2023-09-07T05:30:55;11.43;;;8.48;;
22687;SDS011;11511;51.514;7.080;2023-09-07T05:33:20;11.73;;;8.07;;
22687;SDS011;11511;51.514;7.080;2023-09-07T05:35:46;12.82;;;8.68;;
22687;SDS011;11511;51.514;7.080;2023-09-07T05:38:11;10.30;;;8.32;;
22687;SDS011;11511;51.514;7.080;2023-09-07T05:40:41;11.75;;;8.27;;
22687;SDS011;11511;51.514;7.080;2023-09-07T05:43:09;11.85;;;9.07;;
22687;SDS011;11511;51.514;7.080;2023-09-07T05:45:36;11.23;;;9.20;;
22687;SDS011;11511;51.514;7.080;2023-09-07T05:48:03;11.85;;;9.88;;
22687;SDS011;11511;51.514;7.080;2023-09-07T05:50:29;14.18;;;9.93;;
22687;SDS011;11511;51.514;7.080;2023-09-07T05:52:54;13.45;;;10.00;;
22687;SDS011;11511;51.514;7.080;2023-09-07T05:55:19;11.48;;;9.68;;
22687;SDS011;11511;51.514;7.080;2023-09-07T05:57:45;14.20;;;10.73;;
22687;SDS011;11511;51.514;7.080;2023-09-07T06:00:11;16.63;;;10.05;;
22687;SDS011;11511;51.514;7.080;2023-09-07T06:02:37;13.43;;;10.20;;
22687;SDS011;11511;51.514;7.080;2023-09-07T06:05:03;15.80;;;10.48;;
22687;SDS011;11511;51.514;7.080;2023-09-07T06:07:29;15.48;;;11.02;;
22687;SDS011;11511;51.514;7.080;2023-09-07T06:09:54;15.02;;;11.40;;
22687;SDS011;11511;51.514;7.080;2023-09-07T06:12:19;15.60;;;12.05;;
22687;SDS011;11511;51.514;7.080;2023-09-07T06:14:45;16.08;;;11.45;;
22687;SDS011;11511;51.514;7.080;2023-09-07T06:17:11;13.55;;;10.40;;
22687;SDS011;11511;51.514;7.080;2023-09-07T06:19:37;17.77;;;10.15;;
22687;SDS011;11511;51.514;7.080;2023-09-07T06:22:02;15.73;;;10.18;;
22687;SDS011;11511;51.514;7.080;2023-09-07T06:24:27;12.63;;;9.77;;
22687;SDS011;11511;51.514;7.080;2023-09-07T06:26:53;12.27;;;9.20;;
22687;SDS011;11511;51.514;7.080;2023-09-07T06:29:18;13.10;;;8.68;;
22687;SDS011;11511;51.514;7.080;2023-09-07T06:31:43;10.82;;;8.68;;
22687;SDS011;11511;51.514;7.080;2023-09-07T06:34:09;11.98;;;8.15;;
22687;SDS011;11511;51.514;7.080;2023-09-07T06:36:35;13.80;;;8.65;;
22687;SDS011;11511;51.514;7.080;2023-09-07T06:39:00;13.05;;;7.65;;
22687;SDS011;11511;51.514;7.080;2023-09-07T06:41:25;9.52;;;8.13;;
22687;SDS011;11511;51.514;7.080;2023-09-07T06:43:51;9.38;;;8.00;;
22687;SDS011;11511;51.514;7.080;2023-09-07T06:46:16;10.45;;;8.13;;
22687;SDS011;11511;51.514;7.080;2023-09-07T06:48:42;15.32;;;8.13;;
22687;SDS011;11511;51.514;7.080;2023-09-07T06:51:07;14.00;;;9.30;;
22687;SDS011;11511;51.514;7.080;2023-09-07T06:53:34;10.75;;;8.73;;
22687;SDS011;11511;51.514;7.080;2023-09-07T06:56:00;15.20;;;8.10;;
22687;SDS011;11511;51.514;7.080;2023-09-07T06:58:27;11.55;;;8.55;;
22687;SDS011;11511;51.514;7.080;2023-09-07T07:00:56;12.77;;;8.15;;
22687;SDS011;11511;51.514;7.080;2023-09-07T07:03:24;10.35;;;7.65;;
22687;SDS011;11511;51.514;7.080;2023-09-07T07:05:51;11.13;;;7.25;;
22687;SDS011;11511;51.514;7.080;2023-09-07T07:08:16;10.30;;;7.03;;
22687;SDS011;11511;51.514;7.080;2023-09-07T07:10:42;14.27;;;7.00;;
22687;SDS011;11511;51.514;7.080;2023-09-07T07:13:07;11.65;;;6.50;;
22687;SDS011;11511;51.514;7.080;2023-09-07T07:15:32;13.85;;;6.80;;
22687;SDS011;11511;51.514;7.080;2023-09-07T07:18:00;11.60;;;6.05;;
22687;SDS011;11511;51.514;7.080;2023-09-07T07:20:25;11.27;;;5.40;;
22687;SDS011;11511;51.514;7.080;2023-09-07T07:22:50;12.35;;;6.20;;
22687;SDS011;11511;51.514;7.080;2023-09-07T07:25:16;6.15;;;4.78;;
22687;SDS011;11511;51.514;7.080;2023-09-07T07:27:42;8.27;;;4.68;;
22687;SDS011;11511;51.514;7.080;2023-09-07T07:30:07;9.27;;;4.47;;
22687;SDS011;11511;51.514;7.080;2023-09-07T07:32:33;9.98;;;4.53;;
22687;SDS011;11511;51.514;7.080;2023-09-07T07:34:59;7.40;;;4.43;;
22687;SDS011;11511;51.514;7.080;2023-09-07T07:37:24;6.60;;;4.88;;
22687;SDS011;11511;51.514;7.080;2023-09-07T10:48:30;4.32;;;2.67;;
22687;SDS011;11511;51.514;7.080;2023-09-07T10:50:56;5.60;;;2.80;;
22687;SDS011;11511;51.514;7.080;2023-09-07T10:53:28;4.07;;;2.90;;
22687;SDS011;11511;51.514;7.080;2023-09-07T10:55:57;2.60;;;2.40;;
22687;SDS011;11511;51.514;7.080;2023-09-07T10:58:27;6.35;;;2.40;;
22687;SDS011;11511;51.514;7.080;2023-09-07T11:00:55;8.55;;;2.78;;
22687;SDS011;11511;51.514;7.080;2023-09-07T11:03:21;5.90;;;2.85;;
22687;SDS011;11511;51.514;7.080;2023-09-07T11:05:46;7.40;;;2.40;;
22687;SDS011;11511;51.514;7.080;2023-09-07T11:08:13;5.68;;;2.90;;
22687;SDS011;11511;51.514;7.080;2023-09-07T11:10:39;5.72;;;2.80;;
22687;SDS011;11511;51.514;7.080;2023-09-07T11:13:04;6.20;;;2.80;;
22687;SDS011;11511;51.514;7.080;2023-09-07T11:15:31;3.67;;;2.47;;
22687;SDS011;11511;51.514;7.080;2023-09-07T11:17:58;4.68;;;2.30;;
22687;SDS011;11511;51.514;7.080;2023-09-07T11:20:33;3.88;;;2.60;;
22687;SDS011;11511;51.514;7.080;2023-09-07T11:23:00;4.70;;;2.47;;
22687;SDS011;11511;51.514;7.080;2023-09-07T11:25:26;4.03;;;2.38;;
22687;SDS011;11511;51.514;7.080;2023-09-07T11:27:51;3.70;;;2.70;;
22687;SDS011;11511;51.514;7.080;2023-09-07T11:30:22;3.75;;;2.80;;
22687;SDS011;11511;51.514;7.080;2023-09-07T11:32:49;5.80;;;2.60;;
22687;SDS011;11511;51.514;7.080;2023-09-07T11:35:14;8.02;;;2.70;;
22687;SDS011;11511;51.514;7.080;2023-09-07T11:37:39;5.18;;;2.58;;
22687;SDS011;11511;51.514;7.080;2023-09-07T11:40:05;4.72;;;2.50;;
22687;SDS011;11511;51.514;7.080;2023-09-07T11:42:37;2.72;;;2.40;;
22687;SDS011;11511;51.514;7.080;2023-09-07T11:45:02;5.05;;;2.80;;
22687;SDS011;11511;51.514;7.080;2023-09-07T11:47:28;4.13;;;2.60;;
22687;SDS011;11511;51.514;7.080;2023-09-07T11:49:54;4.87;;;2.40;;
22687;SDS011;11511;51.514;7.080;2023-09-07T11:52:19;7.23;;;3.07;;
22687;SDS011;11511;51.514;7.080;2023-09-07T11:54:45;5.30;;;2.60;;
22687;SDS011;11511;51.514;7.080;2023-09-07T11:57:10;3.30;;;2.80;;
22687;SDS011;11511;51.514;7.080;2023-09-07T11:59:35;7.97;;;2.57;;
22687;SDS011;11511;51.514;7.080;2023-09-07T12:02:01;10.00;;;2.78;;
22687;SDS011;11511;51.514;7.080;2023-09-07T12:04:26;3.78;;;2.80;;
22687;SDS011;11511;51.514;7.080;2023-09-07T12:06:52;3.00;;;2.70;;
22687;SDS011;11511;51.514;7.080;2023-09-07T12:09:17;8.33;;;2.57;;
22687;SDS011;11511;51.514;7.080;2023-09-07T12:11:42;4.70;;;2.50;;
22687;SDS011;11511;51.514;7.080;2023-09-07T12:14:08;5.18;;;2.70;;
22687;SDS011;11511;51.514;7.080;2023-09-07T12:16:34;6.38;;;2.58;;
22687;SDS011;11511;51.514;7.080;2023-09-07T12:18:59;5.07;;;2.70;;
22687;SDS011;11511;51.514;7.080;2023-09-07T12:21:25;4.35;;;2.80;;
22687;SDS011;11511;51.514;7.080;2023-09-07T12:23:50;5.72;;;3.13;;
22687;SDS011;11511;51.514;7.080;2023-09-07T12:26:15;2.90;;;2.50;;
22687;SDS011;11511;51.514;7.080;2023-09-07T12:28:45;3.13;;;2.70;;
22687;SDS011;11511;51.514;7.080;2023-09-07T12:31:11;7.50;;;2.88;;
22687;SDS011;11511;51.514;7.080;2023-09-07T12:33:37;4.57;;;2.88;;
22687;SDS011;11511;51.514;7.080;2023-09-07T12:36:03;9.70;;;3.13;;
22687;SDS011;11511;51.514;7.080;2023-09-07T12:38:28;4.05;;;2.83;;
22687;SDS011;11511;51.514;7.080;2023-09-07T12:40:54;4.75;;;2.90;;
22687;SDS011;11511;51.514;7.080;2023-09-07T12:43:20;3.72;;;2.50;;
22687;SDS011;11511;51.514;7.080;2023-09-07T12:45:46;4.72;;;2.80;;
22687;SDS011;11511;51.514;7.080;2023-09-07T12:48:11;10.07;;;3.15;;
22687;SDS011;11511;51.514;7.080;2023-09-07T12:50:37;8.18;;;2.78;;
22687;SDS011;11511;51.514;7.080;2023-09-07T12:53:02;4.07;;;3.00;;
22687;SDS011;11511;51.514;7.080;2023-09-07T12:55:28;6.32;;;3.00;;
22687;SDS011;11511;51.514;7.080;2023-09-07T12:57:54;6.93;;;2.90;;
22687;SDS011;11511;51.514;7.080;2023-09-07T13:00:20;3.83;;;2.72;;
22687;SDS011;11511;51.514;7.080;2023-09-07T13:02:45;6.93;;;3.10;;
22687;SDS011;11511;51.514;7.080;2023-09-07T13:05:10;6.60;;;3.07;;
22687;SDS011;11511;51.514;7.080;2023-09-07T13:07:36;5.80;;;2.97;;
22687;SDS011;11511;51.514;7.080;2023-09-07T13:10:01;7.63;;;3.15;;
22687;SDS011;11511;51.514;7.080;2023-09-07T13:12:29;4.32;;;3.22;;
22687;SDS011;11511;51.514;7.080;2023-09-07T13:14:56;6.60;;;3.55;;
22687;SDS011;11511;51.514;7.080;2023-09-07T13:17:21;3.80;;;3.03;;
22687;SDS011;11511;51.514;7.080;2023-09-07T13:19:46;6.35;;;3.20;;
22687;SDS011;11511;51.514;7.080;2023-09-07T13:22:13;5.72;;;3.35;;
22687;SDS011;11511;51.514;7.080;2023-09-07T13:24:39;4.43;;;2.90;;
22687;SDS011;11511;51.514;7.080;2023-09-07T13:27:05;8.27;;;2.83;;
22687;SDS011;11511;51.514;7.080;2023-09-07T13:29:33;3.97;;;2.95;;
22687;SDS011;11511;51.514;7.080;2023-09-07T13:32:00;5.03;;;3.17;;
22687;SDS011;11511;51.514;7.080;2023-09-07T13:34:25;5.15;;;3.20;;
22687;SDS011;11511;51.514;7.080;2023-09-07T13:36:51;4.57;;;3.28;;
22687;SDS011;11511;51.514;7.080;2023-09-07T13:39:16;6.40;;;3.38;;
22687;SDS011;11511;51.514;7.080;2023-09-07T13:41:42;6.10;;;3.63;;
22687;SDS011;11511;51.514;7.080;2023-09-07T13:44:07;4.80;;;3.60;;
22687;SDS011;11511;51.514;7.080;2023-09-07T13:46:33;6.43;;;3.30;;
22687;SDS011;11511;51.514;7.080;2023-09-07T13:48:58;6.68;;;3.53;;
22687;SDS011;11511;51.514;7.080;2023-09-07T13:51:23;9.27;;;3.28;;
22687;SDS011;11511;51.514;7.080;2023-09-07T13:53:49;5.80;;;3.50;;
22687;SDS011;11511;51.514;7.080;2023-09-07T13:56:15;4.97;;;3.42;;
22687;SDS011;11511;51.514;7.080;2023-09-07T13:58:41;4.53;;;3.55;;
22687;SDS011;11511;51.514;7.080;2023-09-07T14:01:06;6.32;;;3.83;;
22687;SDS011;11511;51.514;7.080;2023-09-07T14:03:32;7.32;;;3.40;;
22687;SDS011;11511;51.514;7.080;2023-09-07T14:05:57;8.63;;;3.70;;
22687;SDS011;11511;51.514;7.080;2023-09-07T14:08:22;4.68;;;3.58;;
22687;SDS011;11511;51.514;7.080;2023-09-07T14:10:49;6.22;;;3.78;;
22687;SDS011;11511;51.514;7.080;2023-09-07T14:13:17;6.07;;;3.42;;
22687;SDS011;11511;51.514;7.080;2023-09-07T14:15:43;7.60;;;3.72;;
22687;SDS011;11511;51.514;7.080;2023-09-07T14:18:09;7.88;;;3.60;;
22687;SDS011;11511;51.514;7.080;2023-09-07T14:20:34;6.28;;;3.58;;
22687;SDS011;11511;51.514;7.080;2023-09-07T14:23:00;6.30;;;3.53;;
22687;SDS011;11511;51.514;7.080;2023-09-07T14:25:26;5.97;;;3.50;;
22687;SDS011;11511;51.514;7.080;2023-09-07T14:27:52;8.25;;;3.58;;
22687;SDS011;11511;51.514;7.080;2023-09-07T14:30:17;7.20;;;3.67;;
22687;SDS011;11511;51.514;7.080;2023-09-07T14:32:43;6.05;;;3.83;;
22687;SDS011;11511;51.514;7.080;2023-09-07T14:35:08;7.47;;;3.95;;
22687;SDS011;11511;51.514;7.080;2023-09-07T14:37:34;4.13;;;3.50;;
22687;SDS011;11511;51.514;7.080;2023-09-07T14:40:00;4.85;;;3.60;;
22687;SDS011;11511;51.514;7.080;2023-09-07T14:42:25;4.82;;;3.50;;
22687;SDS011;11511;51.514;7.080;2023-09-07T14:44:51;6.80;;;3.70;;
22687;SDS011;11511;51.514;7.080;2023-09-07T14:47:16;4.32;;;3.33;;
22687;SDS011;11511;51.514;7.080;2023-09-07T14:49:41;5.22;;;3.30;;
22687;SDS011;11511;51.514;7.080;2023-09-07T14:52:07;7.18;;;3.90;;
22687;SDS011;11511;51.514;7.080;2023-09-07T14:54:32;4.95;;;3.22;;
22687;SDS011;11511;51.514;7.080;2023-09-07T14:56:58;7.65;;;3.58;;
22687;SDS011;11511;51.514;7.080;2023-09-07T14:59:23;6.13;;;3.65;;
22687;SDS011;11511;51.514;7.080;2023-09-07T15:01:49;4.20;;;3.23;;
22687;SDS011;11511;51.514;7.080;2023-09-07T15:04:14;6.53;;;3.55;;
22687;SDS011;11511;51.514;7.080;2023-09-07T15:06:39;9.97;;;3.40;;
22687;SDS011;11511;51.514;7.080;2023-09-07T15:09:05;4.63;;;3.28;;
22687;SDS011;11511;51.514;7.080;2023-09-07T15:11:31;7.90;;;3.28;;
22687;SDS011;11511;51.514;7.080;2023-09-07T15:13:56;7.20;;;3.47;;
22687;SDS011;11511;51.514;7.080;2023-09-07T15:16:22;8.15;;;3.60;;
22687;SDS011;11511;51.514;7.080;2023-09-07T15:18:48;6.28;;;3.40;;
22687;SDS011;11511;51.514;7.080;2023-09-07T15:21:16;6.80;;;3.17;;
22687;SDS011;11511;51.514;7.080;2023-09-07T15:23:41;7.10;;;3.33;;
22687;SDS011;11511;51.514;7.080;2023-09-07T15:26:08;5.70;;;3.10;;
22687;SDS011;11511;51.514;7.080;2023-09-07T15:28:33;6.68;;;3.20;;
22687;SDS011;11511;51.514;7.080;2023-09-07T15:30:58;5.10;;;2.95;;
22687;SDS011;11511;51.514;7.080;2023-09-07T15:33:24;8.73;;;3.22;;
22687;SDS011;11511;51.514;7.080;2023-09-07T15:35:49;4.03;;;2.90;;
22687;SDS011;11511;51.514;7.080;2023-09-07T15:38:15;6.82;;;3.40;;
22687;SDS011;11511;51.514;7.080;2023-09-07T15:40:40;3.97;;;3.23;;
22687;SDS011;11511;51.514;7.080;2023-09-07T15:43:09;5.82;;;3.05;;
22687;SDS011;11511;51.514;7.080;2023-09-07T15:45:36;8.45;;;2.95;;
22687;SDS011;11511;51.514;7.080;2023-09-07T15:48:03;4.93;;;3.20;;
22687;SDS011;11511;51.514;7.080;2023-09-07T15:50:29;10.63;;;3.22;;
22687;SDS011;11511;51.514;7.080;2023-09-07T15:52:54;8.35;;;3.00;;
22687;SDS011;11511;51.514;7.080;2023-09-07T15:55:20;4.97;;;3.10;;
22687;SDS011;11511;51.514;7.080;2023-09-07T15:57:45;7.43;;;3.10;;
22687;SDS011;11511;51.514;7.080;2023-09-07T16:00:12;4.82;;;3.00;;
22687;SDS011;11511;51.514;7.080;2023-09-07T16:02:38;4.60;;;3.30;;
22687;SDS011;11511;51.514;7.080;2023-09-07T16:05:04;4.82;;;3.00;;
22687;SDS011;11511;51.514;7.080;2023-09-07T16:07:29;5.53;;;2.95;;
22687;SDS011;11511;51.514;7.080;2023-09-07T16:09:55;5.97;;;3.13;;
22687;SDS011;11511;51.514;7.080;2023-09-07T16:12:20;10.25;;;3.20;;
22687;SDS011;11511;51.514;7.080;2023-09-07T16:14:46;7.00;;;3.50;;
22687;SDS011;11511;51.514;7.080;2023-09-07T16:17:11;8.85;;;3.65;;
22687;SDS011;11511;51.514;7.080;2023-09-07T16:19:37;8.75;;;3.50;;
22687;SDS011;11511;51.514;7.080;2023-09-07T16:22:02;6.05;;;2.90;;
22687;SDS011;11511;51.514;7.080;2023-09-07T16:24:33;7.20;;;3.03;;
22687;SDS011;11511;51.514;7.080;2023-09-07T16:26:58;8.52;;;2.70;;
22687;SDS011;11511;51.514;7.080;2023-09-07T16:29:24;6.97;;;2.92;;
22687;SDS011;11511;51.514;7.080;2023-09-07T16:31:50;4.85;;;2.70;;
22687;SDS011;11511;51.514;7.080;2023-09-07T16:34:15;6.47;;;3.10;;
22687;SDS011;11511;51.514;7.080;2023-09-07T16:36:40;5.53;;;2.90;;
22687;SDS011;11511;51.514;7.080;2023-09-07T16:39:06;7.30;;;3.08;;
22687;SDS011;11511;51.514;7.080;2023-09-07T16:41:32;5.68;;;3.20;;
22687;SDS011;11511;51.514;7.080;2023-09-07T16:43:57;9.73;;;3.17;;
22687;SDS011;11511;51.514;7.080;2023-09-07T16:46:22;6.43;;;3.20;;
22687;SDS011;11511;51.514;7.080;2023-09-07T16:48:48;6.45;;;3.78;;
22687;SDS011;11511;51.514;7.080;2023-09-07T16:51:13;6.63;;;3.33;;
22687;SDS011;11511;51.514;7.080;2023-09-07T16:53:38;6.70;;;3.45;;
22687;SDS011;11511;51.514;7.080;2023-09-07T16:56:04;7.57;;;3.93;;
22687;SDS011;11511;51.514;7.080;2023-09-07T16:58:29;5.35;;;3.08;;
22687;SDS011;11511;51.514;7.080;2023-09-07T17:00:55;8.55;;;3.63;;
22687;SDS011;11511;51.514;7.080;2023-09-07T17:03:20;4.18;;;3.50;;
22687;SDS011;11511;51.514;7.080;2023-09-07T17:05:47;6.22;;;3.50;;
22687;SDS011;11511;51.514;7.080;2023-09-07T17:08:13;5.90;;;3.67;;
22687;SDS011;11511;51.514;7.080;2023-09-07T17:10:42;4.35;;;3.70;;
22687;SDS011;11511;51.514;7.080;2023-09-07T17:13:08;6.00;;;3.22;;
22687;SDS011;11511;51.514;7.080;2023-09-07T17:15:33;6.88;;;3.30;;
22687;SDS011;11511;51.514;7.080;2023-09-07T17:17:59;6.65;;;3.53;;
22687;SDS011;11511;51.514;7.080;2023-09-07T17:20:24;4.85;;;3.47;;
22687;SDS011;11511;51.514;7.080;2023-09-07T17:22:50;8.45;;;3.55;;
22687;SDS011;11511;51.514;7.080;2023-09-07T17:25:16;7.88;;;3.20;;
22687;SDS011;11511;51.514;7.080;2023-09-07T17:27:42;11.88;;;3.35;;
22687;SDS011;11511;51.514;7.080;2023-09-07T17:30:11;6.30;;;3.50;;
22687;SDS011;11511;51.514;7.080;2023-09-07T17:32:37;7.93;;;3.35;;
22687;SDS011;11511;51.514;7.080;2023-09-07T17:35:04;7.95;;;3.60;;
22687;SDS011;11511;51.514;7.080;2023-09-07T17:37:30;8.50;;;3.63;;
22687;SDS011;11511;51.514;7.080;2023-09-07T17:39:55;7.57;;;3.70;;
22687;SDS011;11511;51.514;7.080;2023-09-07T17:42:21;6.25;;;3.95;;
22687;SDS011;11511;51.514;7.080;2023-09-07T17:44:47;8.35;;;4.22;;